sensor_id;sensor_type;location;lat;lon;timestamp;temperature;humidity
20654;DHT22;21083;50.898;4.902;2023-02-02T00:01:44;8.30;99.90
20654;DHT22;21083;50.898;4.902;2023-02-02T00:04:15;8.40;99.90
20654;DHT22;21083;50.898;4.902;2023-02-02T00:06:43;8.40;99.90
20654;DHT22;21083;50.898;4.902;2023-02-02T00:09:12;8.40;99.90
20654;DHT22;21083;50.898;4.902;2023-02-02T00:11:40;8.40;99.90
20654;DHT22;21083;50.898;4.902;2023-02-02T00:14:07;8.50;99.90
20654;DHT22;21083;50.898;4.902;2023-02-02T00:16:39;8.50;99.90
20654;DHT22;21083;50.898;4.902;2023-02-02T00:19:09;8.50;99.90
20654;DHT22;21083;50.898;4.902;2023-02-02T00:21:39;8.50;99.90
20654;DHT22;21083;50.898;4.902;2023-02-02T00:24:07;8.40;99.90
20654;DHT22;21083;50.898;4.902;2023-02-02T00:26:36;8.40;99.90
20654;DHT22;21083;50.898;4.902;2023-02-02T00:29:05;8.40;99.90
20654;DHT22;21083;50.898;4.902;2023-02-02T00:31:33;8.40;99.90
20654;DHT22;21083;50.898;4.902;2023-02-02T00:34:00;8.50;99.90
20654;DHT22;21083;50.898;4.902;2023-02-02T00:36:27;8.40;99.90
20654;DHT22;21083;50.898;4.902;2023-02-02T00:38:55;8.50;99.90
20654;DHT22;21083;50.898;4.902;2023-02-02T00:41:22;8.50;99.90
20654;DHT22;21083;50.898;4.902;2023-02-02T00:43:49;8.50;99.90
20654;DHT22;21083;50.898;4.902;2023-02-02T00:46:42;8.40;99.90
20654;DHT22;21083;50.898;4.902;2023-02-02T00:49:08;8.50;99.90
20654;DHT22;21083;50.898;4.902;2023-02-02T00:51:36;8.40;99.90
20654;DHT22;21083;50.898;4.902;2023-02-02T00:54:05;8.50;99.90
20654;DHT22;21083;50.898;4.902;2023-02-02T00:56:31;8.40;99.90
20654;DHT22;21083;50.898;4.902;2023-02-02T00:58:58;8.50;99.90
20654;DHT22;21083;50.898;4.902;2023-02-02T01:01:25;8.50;99.90
20654;DHT22;21083;50.898;4.902;2023-02-02T01:03:53;8.50;99.90
20654;DHT22;21083;50.898;4.902;2023-02-02T01:06:20;8.40;99.90
20654;DHT22;21083;50.898;4.902;2023-02-02T01:08:47;8.40;99.90
20654;DHT22;21083;50.898;4.902;2023-02-02T01:11:15;8.40;99.90
20654;DHT22;21083;50.898;4.902;2023-02-02T01:13:42;8.40;99.90
20654;DHT22;21083;50.898;4.902;2023-02-02T01:16:10;8.40;99.90
20654;DHT22;21083;50.898;4.902;2023-02-02T01:18:37;8.40;99.90
20654;DHT22;21083;50.898;4.902;2023-02-02T01:21:06;8.40;99.90
20654;DHT22;21083;50.898;4.902;2023-02-02T01:23:34;8.40;99.90
20654;DHT22;21083;50.898;4.902;2023-02-02T01:26:04;8.40;99.90
20654;DHT22;21083;50.898;4.902;2023-02-02T01:28:33;8.50;99.90
20654;DHT22;21083;50.898;4.902;2023-02-02T01:31:05;8.50;99.90
20654;DHT22;21083;50.898;4.902;2023-02-02T01:33:32;8.50;99.90
20654;DHT22;21083;50.898;4.902;2023-02-02T01:36:02;8.50;99.90
20654;DHT22;21083;50.898;4.902;2023-02-02T01:38:30;8.50;99.90
20654;DHT22;21083;50.898;4.902;2023-02-02T01:40:57;8.50;99.90
20654;DHT22;21083;50.898;4.902;2023-02-02T01:43:25;8.50;99.90
20654;DHT22;21083;50.898;4.902;2023-02-02T01:45:55;8.60;99.90
20654;DHT22;21083;50.898;4.902;2023-02-02T01:48:28;8.50;99.90
20654;DHT22;21083;50.898;4.902;2023-02-02T01:50:58;8.40;99.90
20654;DHT22;21083;50.898;4.902;2023-02-02T01:53:26;8.40;99.90
20654;DHT22;21083;50.898;4.902;2023-02-02T01:55:54;8.40;99.90
20654;DHT22;21083;50.898;4.902;2023-02-02T01:58:25;8.40;99.90
20654;DHT22;21083;50.898;4.902;2023-02-02T02:00:54;8.40;99.90
20654;DHT22;21083;50.898;4.902;2023-02-02T02:03:23;8.40;99.90
20654;DHT22;21083;50.898;4.902;2023-02-02T02:05:53;8.50;99.90
20654;DHT22;21083;50.898;4.902;2023-02-02T02:08:26;8.40;99.90
20654;DHT22;21083;50.898;4.902;2023-02-02T02:10:53;8.50;99.90
20654;DHT22;21083;50.898;4.902;2023-02-02T02:13:23;8.50;99.90
20654;DHT22;21083;50.898;4.902;2023-02-02T02:16:17;8.50;99.90
20654;DHT22;21083;50.898;4.902;2023-02-02T02:18:53;8.40;99.90
20654;DHT22;21083;50.898;4.902;2023-02-02T02:21:35;8.40;99.90
20654;DHT22;21083;50.898;4.902;2023-02-02T02:28:08;8.50;99.90
20654;DHT22;21083;50.898;4.902;2023-02-02T02:30:55;8.40;99.90
20654;DHT22;21083;50.898;4.902;2023-02-02T02:33:30;8.40;99.90
20654;DHT22;21083;50.898;4.902;2023-02-02T02:36:05;8.40;99.90
20654;DHT22;21083;50.898;4.902;2023-02-02T02:38:39;8.40;99.90
20654;DHT22;21083;50.898;4.902;2023-02-02T02:41:11;8.40;99.90
20654;DHT22;21083;50.898;4.902;2023-02-02T02:43:42;8.40;99.90
20654;DHT22;21083;50.898;4.902;2023-02-02T02:46:10;8.50;99.90
20654;DHT22;21083;50.898;4.902;2023-02-02T02:48:39;8.50;99.90
20654;DHT22;21083;50.898;4.902;2023-02-02T02:51:39;8.50;99.90
20654;DHT22;21083;50.898;4.902;2023-02-02T02:54:07;8.50;99.90
20654;DHT22;21083;50.898;4.902;2023-02-02T02:56:40;8.50;99.90
20654;DHT22;21083;50.898;4.902;2023-02-02T02:59:15;8.50;99.90
20654;DHT22;21083;50.898;4.902;2023-02-02T03:01:51;8.50;99.90
20654;DHT22;21083;50.898;4.902;2023-02-02T03:04:26;8.50;99.90
20654;DHT22;21083;50.898;4.902;2023-02-02T03:06:57;8.50;99.90
20654;DHT22;21083;50.898;4.902;2023-02-02T03:09:30;8.50;99.90
20654;DHT22;21083;50.898;4.902;2023-02-02T03:11:59;8.40;99.90
20654;DHT22;21083;50.898;4.902;2023-02-02T03:14:26;8.40;99.90
20654;DHT22;21083;50.898;4.902;2023-02-02T03:16:53;8.40;99.90
20654;DHT22;21083;50.898;4.902;2023-02-02T03:19:22;8.40;99.90
20654;DHT22;21083;50.898;4.902;2023-02-02T03:21:49;8.40;99.90
20654;DHT22;21083;50.898;4.902;2023-02-02T03:24:16;8.40;99.90
20654;DHT22;21083;50.898;4.902;2023-02-02T03:26:44;8.50;99.90
20654;DHT22;21083;50.898;4.902;2023-02-02T03:29:11;8.50;99.90
20654;DHT22;21083;50.898;4.902;2023-02-02T03:31:39;8.50;99.90
20654;DHT22;21083;50.898;4.902;2023-02-02T03:34:05;8.50;99.90
20654;DHT22;21083;50.898;4.902;2023-02-02T03:36:34;8.40;99.90
20654;DHT22;21083;50.898;4.902;2023-02-02T03:39:00;8.40;99.90
20654;DHT22;21083;50.898;4.902;2023-02-02T03:41:27;8.40;99.90
20654;DHT22;21083;50.898;4.902;2023-02-02T03:43:54;8.40;99.90
20654;DHT22;21083;50.898;4.902;2023-02-02T03:46:21;8.50;99.90
20654;DHT22;21083;50.898;4.902;2023-02-02T03:48:48;8.40;99.90
20654;DHT22;21083;50.898;4.902;2023-02-02T03:51:15;8.40;99.90
20654;DHT22;21083;50.898;4.902;2023-02-02T03:53:43;8.40;99.90
20654;DHT22;21083;50.898;4.902;2023-02-02T03:56:12;8.40;99.90
20654;DHT22;21083;50.898;4.902;2023-02-02T03:58:39;8.50;99.90
20654;DHT22;21083;50.898;4.902;2023-02-02T04:01:07;8.50;99.90
20654;DHT22;21083;50.898;4.902;2023-02-02T04:03:36;8.40;99.90
20654;DHT22;21083;50.898;4.902;2023-02-02T04:06:04;8.40;99.90
20654;DHT22;21083;50.898;4.902;2023-02-02T04:08:31;8.30;99.90
20654;DHT22;21083;50.898;4.902;2023-02-02T04:11:00;8.40;99.90
20654;DHT22;21083;50.898;4.902;2023-02-02T04:13:27;8.30;99.90
20654;DHT22;21083;50.898;4.902;2023-02-02T04:15:57;8.30;99.90
20654;DHT22;21083;50.898;4.902;2023-02-02T04:18:24;8.30;99.90
20654;DHT22;21083;50.898;4.902;2023-02-02T04:20:55;8.30;99.90
20654;DHT22;21083;50.898;4.902;2023-02-02T04:23:22;8.30;99.90
20654;DHT22;21083;50.898;4.902;2023-02-02T04:25:49;8.40;99.90
20654;DHT22;21083;50.898;4.902;2023-02-02T04:28:18;8.40;99.90
20654;DHT22;21083;50.898;4.902;2023-02-02T04:30:45;8.40;99.90
20654;DHT22;21083;50.898;4.902;2023-02-02T04:33:12;8.40;99.90
20654;DHT22;21083;50.898;4.902;2023-02-02T04:35:38;8.40;99.90
20654;DHT22;21083;50.898;4.902;2023-02-02T04:38:05;8.40;99.90
20654;DHT22;21083;50.898;4.902;2023-02-02T04:40:32;8.50;99.90
20654;DHT22;21083;50.898;4.902;2023-02-02T04:42:59;8.40;99.90
20654;DHT22;21083;50.898;4.902;2023-02-02T04:45:27;8.40;99.90
20654;DHT22;21083;50.898;4.902;2023-02-02T04:47:54;8.40;99.90
20654;DHT22;21083;50.898;4.902;2023-02-02T04:50:21;8.40;99.90
20654;DHT22;21083;50.898;4.902;2023-02-02T04:52:48;8.50;99.90
20654;DHT22;21083;50.898;4.902;2023-02-02T04:55:15;8.30;99.90
20654;DHT22;21083;50.898;4.902;2023-02-02T04:57:43;8.30;99.90
20654;DHT22;21083;50.898;4.902;2023-02-02T05:00:11;8.30;99.90
20654;DHT22;21083;50.898;4.902;2023-02-02T05:02:40;8.40;99.90
20654;DHT22;21083;50.898;4.902;2023-02-02T05:05:10;8.40;99.90
20654;DHT22;21083;50.898;4.902;2023-02-02T05:07:37;8.30;99.90
20654;DHT22;21083;50.898;4.902;2023-02-02T05:10:06;8.30;99.90
20654;DHT22;21083;50.898;4.902;2023-02-02T05:12:33;8.30;99.90
20654;DHT22;21083;50.898;4.902;2023-02-02T05:15:00;8.30;99.90
20654;DHT22;21083;50.898;4.902;2023-02-02T05:17:28;8.30;99.90
20654;DHT22;21083;50.898;4.902;2023-02-02T05:19:56;8.20;99.90
20654;DHT22;21083;50.898;4.902;2023-02-02T05:22:23;8.30;99.90
20654;DHT22;21083;50.898;4.902;2023-02-02T05:24:50;8.30;99.90
20654;DHT22;21083;50.898;4.902;2023-02-02T05:27:17;8.30;99.90
20654;DHT22;21083;50.898;4.902;2023-02-02T05:29:46;8.40;99.90
20654;DHT22;21083;50.898;4.902;2023-02-02T05:32:13;8.40;99.90
20654;DHT22;21083;50.898;4.902;2023-02-02T05:34:40;8.30;99.90
20654;DHT22;21083;50.898;4.902;2023-02-02T05:37:08;8.30;99.90
20654;DHT22;21083;50.898;4.902;2023-02-02T05:39:35;8.30;99.90
20654;DHT22;21083;50.898;4.902;2023-02-02T05:42:02;8.40;99.90
20654;DHT22;21083;50.898;4.902;2023-02-02T05:44:29;8.30;99.90
20654;DHT22;21083;50.898;4.902;2023-02-02T05:46:55;8.30;99.90
20654;DHT22;21083;50.898;4.902;2023-02-02T05:49:22;8.30;99.90
20654;DHT22;21083;50.898;4.902;2023-02-02T05:51:51;8.30;99.90
20654;DHT22;21083;50.898;4.902;2023-02-02T05:54:22;8.30;99.90
20654;DHT22;21083;50.898;4.902;2023-02-02T05:56:51;8.50;99.90
20654;DHT22;21083;50.898;4.902;2023-02-02T05:59:19;8.40;99.90
20654;DHT22;21083;50.898;4.902;2023-02-02T06:01:46;8.30;99.90
20654;DHT22;21083;50.898;4.902;2023-02-02T06:04:14;8.20;99.90
20654;DHT22;21083;50.898;4.902;2023-02-02T06:06:41;8.40;99.90
20654;DHT22;21083;50.898;4.902;2023-02-02T06:09:08;8.30;99.90
20654;DHT22;21083;50.898;4.902;2023-02-02T06:11:36;8.30;99.90
20654;DHT22;21083;50.898;4.902;2023-02-02T06:14:04;8.20;99.90
20654;DHT22;21083;50.898;4.902;2023-02-02T06:16:31;8.20;99.90
20654;DHT22;21083;50.898;4.902;2023-02-02T06:18:59;8.20;99.90
20654;DHT22;21083;50.898;4.902;2023-02-02T06:21:26;8.10;99.90
20654;DHT22;21083;50.898;4.902;2023-02-02T06:23:56;8.00;99.90
20654;DHT22;21083;50.898;4.902;2023-02-02T06:26:24;8.00;99.90
20654;DHT22;21083;50.898;4.902;2023-02-02T06:28:53;8.10;99.90
20654;DHT22;21083;50.898;4.902;2023-02-02T06:31:20;8.10;99.90
20654;DHT22;21083;50.898;4.902;2023-02-02T06:33:51;8.10;99.90
20654;DHT22;21083;50.898;4.902;2023-02-02T06:36:19;8.00;99.90
20654;DHT22;21083;50.898;4.902;2023-02-02T06:38:47;7.80;99.90
20654;DHT22;21083;50.898;4.902;2023-02-02T06:41:14;7.80;99.90
20654;DHT22;21083;50.898;4.902;2023-02-02T06:43:41;8.00;99.90
20654;DHT22;21083;50.898;4.902;2023-02-02T06:46:10;7.90;99.90
20654;DHT22;21083;50.898;4.902;2023-02-02T06:48:36;7.90;99.90
20654;DHT22;21083;50.898;4.902;2023-02-02T06:51:04;8.00;99.90
20654;DHT22;21083;50.898;4.902;2023-02-02T06:53:31;8.10;99.90
20654;DHT22;21083;50.898;4.902;2023-02-02T06:55:59;8.10;99.90
20654;DHT22;21083;50.898;4.902;2023-02-02T06:58:26;8.10;99.90
20654;DHT22;21083;50.898;4.902;2023-02-02T07:00:54;8.00;99.90
20654;DHT22;21083;50.898;4.902;2023-02-02T07:03:22;8.10;99.90
20654;DHT22;21083;50.898;4.902;2023-02-02T07:05:50;8.10;99.90
20654;DHT22;21083;50.898;4.902;2023-02-02T07:08:17;8.10;99.90
20654;DHT22;21083;50.898;4.902;2023-02-02T07:10:43;8.10;99.90
20654;DHT22;21083;50.898;4.902;2023-02-02T07:13:10;7.90;99.90
20654;DHT22;21083;50.898;4.902;2023-02-02T07:15:38;7.90;99.90
20654;DHT22;21083;50.898;4.902;2023-02-02T07:18:05;7.90;99.90
20654;DHT22;21083;50.898;4.902;2023-02-02T07:20:34;7.90;99.90
20654;DHT22;21083;50.898;4.902;2023-02-02T07:23:01;8.00;99.90
20654;DHT22;21083;50.898;4.902;2023-02-02T07:25:29;7.90;99.90
20654;DHT22;21083;50.898;4.902;2023-02-02T07:27:56;7.80;99.90
20654;DHT22;21083;50.898;4.902;2023-02-02T07:30:23;7.90;99.90
20654;DHT22;21083;50.898;4.902;2023-02-02T07:32:54;7.90;99.90
20654;DHT22;21083;50.898;4.902;2023-02-02T07:35:22;7.80;99.90
20654;DHT22;21083;50.898;4.902;2023-02-02T07:37:52;7.80;99.90
20654;DHT22;21083;50.898;4.902;2023-02-02T07:40:19;7.80;99.90
20654;DHT22;21083;50.898;4.902;2023-02-02T07:42:46;7.80;99.90
20654;DHT22;21083;50.898;4.902;2023-02-02T07:45:13;7.80;99.90
20654;DHT22;21083;50.898;4.902;2023-02-02T07:47:40;7.90;99.90
20654;DHT22;21083;50.898;4.902;2023-02-02T07:50:08;7.80;99.90
20654;DHT22;21083;50.898;4.902;2023-02-02T07:52:35;7.80;99.90
20654;DHT22;21083;50.898;4.902;2023-02-02T07:55:05;7.80;99.90
20654;DHT22;21083;50.898;4.902;2023-02-02T07:57:32;7.90;99.90
20654;DHT22;21083;50.898;4.902;2023-02-02T07:59:59;7.90;99.90
20654;DHT22;21083;50.898;4.902;2023-02-02T08:02:25;7.80;99.90
20654;DHT22;21083;50.898;4.902;2023-02-02T08:04:52;7.80;99.90
20654;DHT22;21083;50.898;4.902;2023-02-02T08:07:19;7.90;99.90
20654;DHT22;21083;50.898;4.902;2023-02-02T08:09:49;7.90;99.90
20654;DHT22;21083;50.898;4.902;2023-02-02T08:12:18;7.90;99.90
20654;DHT22;21083;50.898;4.902;2023-02-02T08:14:47;7.90;99.90
20654;DHT22;21083;50.898;4.902;2023-02-02T08:17:14;7.80;99.90
20654;DHT22;21083;50.898;4.902;2023-02-02T08:19:41;7.80;99.90
20654;DHT22;21083;50.898;4.902;2023-02-02T08:22:08;7.90;99.90
20654;DHT22;21083;50.898;4.902;2023-02-02T08:24:35;8.10;99.90
20654;DHT22;21083;50.898;4.902;2023-02-02T08:27:05;8.00;99.90
20654;DHT22;21083;50.898;4.902;2023-02-02T08:29:37;7.90;99.90
20654;DHT22;21083;50.898;4.902;2023-02-02T08:32:04;7.90;99.90
20654;DHT22;21083;50.898;4.902;2023-02-02T08:34:32;8.00;99.90
20654;DHT22;21083;50.898;4.902;2023-02-02T08:37:01;8.00;99.90
20654;DHT22;21083;50.898;4.902;2023-02-02T08:39:28;8.10;99.90
20654;DHT22;21083;50.898;4.902;2023-02-02T08:41:55;8.00;99.90
20654;DHT22;21083;50.898;4.902;2023-02-02T08:44:22;8.10;99.90
20654;DHT22;21083;50.898;4.902;2023-02-02T08:46:51;8.10;99.90
20654;DHT22;21083;50.898;4.902;2023-02-02T08:49:18;8.20;99.90
20654;DHT22;21083;50.898;4.902;2023-02-02T08:51:45;8.20;99.90
20654;DHT22;21083;50.898;4.902;2023-02-02T08:54:12;8.30;99.90
20654;DHT22;21083;50.898;4.902;2023-02-02T08:56:38;8.40;99.90
20654;DHT22;21083;50.898;4.902;2023-02-02T08:59:05;8.40;99.90
20654;DHT22;21083;50.898;4.902;2023-02-02T09:01:32;8.30;99.90
20654;DHT22;21083;50.898;4.902;2023-02-02T09:04:03;8.40;99.90
20654;DHT22;21083;50.898;4.902;2023-02-02T09:06:32;8.30;99.90
20654;DHT22;21083;50.898;4.902;2023-02-02T09:08:59;8.30;99.90
20654;DHT22;21083;50.898;4.902;2023-02-02T09:11:27;8.40;99.90
20654;DHT22;21083;50.898;4.902;2023-02-02T09:13:56;8.40;99.90
20654;DHT22;21083;50.898;4.902;2023-02-02T09:16:24;8.50;99.90
20654;DHT22;21083;50.898;4.902;2023-02-02T09:18:51;8.50;99.90
20654;DHT22;21083;50.898;4.902;2023-02-02T09:21:21;8.50;99.90
20654;DHT22;21083;50.898;4.902;2023-02-02T09:23:49;8.50;99.90
20654;DHT22;21083;50.898;4.902;2023-02-02T09:26:17;8.50;99.90
20654;DHT22;21083;50.898;4.902;2023-02-02T09:28:46;8.50;99.90
20654;DHT22;21083;50.898;4.902;2023-02-02T09:31:13;8.40;99.90
20654;DHT22;21083;50.898;4.902;2023-02-02T09:33:41;8.60;99.90
20654;DHT22;21083;50.898;4.902;2023-02-02T09:36:09;8.60;99.90
20654;DHT22;21083;50.898;4.902;2023-02-02T09:38:38;8.70;99.90
20654;DHT22;21083;50.898;4.902;2023-02-02T09:41:26;8.80;99.90
20654;DHT22;21083;50.898;4.902;2023-02-02T09:44:03;8.90;99.90
20654;DHT22;21083;50.898;4.902;2023-02-02T09:46:40;8.80;99.90
20654;DHT22;21083;50.898;4.902;2023-02-02T09:49:13;8.80;99.90
20654;DHT22;21083;50.898;4.902;2023-02-02T09:51:46;8.80;99.90
20654;DHT22;21083;50.898;4.902;2023-02-02T09:54:18;8.80;99.90
20654;DHT22;21083;50.898;4.902;2023-02-02T09:56:48;8.90;99.90
20654;DHT22;21083;50.898;4.902;2023-02-02T09:59:21;8.90;99.90
20654;DHT22;21083;50.898;4.902;2023-02-02T10:01:52;8.90;99.90
20654;DHT22;21083;50.898;4.902;2023-02-02T10:04:23;8.80;99.90
20654;DHT22;21083;50.898;4.902;2023-02-02T10:06:53;8.80;99.90
20654;DHT22;21083;50.898;4.902;2023-02-02T10:09:29;8.90;99.90
20654;DHT22;21083;50.898;4.902;2023-02-02T10:12:00;8.90;99.90
20654;DHT22;21083;50.898;4.902;2023-02-02T10:14:34;8.90;99.90
20654;DHT22;21083;50.898;4.902;2023-02-02T10:17:15;8.90;99.90
20654;DHT22;21083;50.898;4.902;2023-02-02T10:19:53;8.90;99.90
20654;DHT22;21083;50.898;4.902;2023-02-02T10:22:23;8.90;99.90
20654;DHT22;21083;50.898;4.902;2023-02-02T10:24:56;9.10;99.90
20654;DHT22;21083;50.898;4.902;2023-02-02T10:27:31;9.20;99.90
20654;DHT22;21083;50.898;4.902;2023-02-02T10:30:06;9.20;99.90
20654;DHT22;21083;50.898;4.902;2023-02-02T10:32:42;9.10;99.90
20654;DHT22;21083;50.898;4.902;2023-02-02T10:35:26;9.10;99.90
20654;DHT22;21083;50.898;4.902;2023-02-02T10:37:59;9.20;99.90
20654;DHT22;21083;50.898;4.902;2023-02-02T10:40:41;9.20;99.90
20654;DHT22;21083;50.898;4.902;2023-02-02T10:43:30;9.30;99.90
20654;DHT22;21083;50.898;4.902;2023-02-02T10:46:14;9.40;99.90
20654;DHT22;21083;50.898;4.902;2023-02-02T10:48:45;9.50;99.90
20654;DHT22;21083;50.898;4.902;2023-02-02T10:51:18;9.50;99.90
20654;DHT22;21083;50.898;4.902;2023-02-02T10:53:49;9.40;99.90
20654;DHT22;21083;50.898;4.902;2023-02-02T10:56:21;9.50;99.90
20654;DHT22;21083;50.898;4.902;2023-02-02T10:58:56;9.40;99.90
20654;DHT22;21083;50.898;4.902;2023-02-02T11:01:25;9.40;99.90
20654;DHT22;21083;50.898;4.902;2023-02-02T11:03:52;9.40;99.90
20654;DHT22;21083;50.898;4.902;2023-02-02T11:06:41;9.50;99.90
20654;DHT22;21083;50.898;4.902;2023-02-02T11:09:19;9.60;99.90
20654;DHT22;21083;50.898;4.902;2023-02-02T11:11:50;9.60;99.90
20654;DHT22;21083;50.898;4.902;2023-02-02T11:14:28;9.70;99.90
20654;DHT22;21083;50.898;4.902;2023-02-02T11:17:02;9.70;99.90
20654;DHT22;21083;50.898;4.902;2023-02-02T11:19:31;9.90;99.90
20654;DHT22;21083;50.898;4.902;2023-02-02T11:22:00;9.90;99.90
20654;DHT22;21083;50.898;4.902;2023-02-02T11:24:29;10.00;99.90
20654;DHT22;21083;50.898;4.902;2023-02-02T11:27:05;10.00;99.90
20654;DHT22;21083;50.898;4.902;2023-02-02T11:29:40;10.10;99.90
20654;DHT22;21083;50.898;4.902;2023-02-02T11:32:18;10.20;99.90
20654;DHT22;21083;50.898;4.902;2023-02-02T11:34:45;10.20;99.90
20654;DHT22;21083;50.898;4.902;2023-02-02T11:37:13;10.40;99.90
20654;DHT22;21083;50.898;4.902;2023-02-02T11:39:41;10.40;99.90
20654;DHT22;21083;50.898;4.902;2023-02-02T11:42:15;10.40;99.90
20654;DHT22;21083;50.898;4.902;2023-02-02T11:44:45;10.50;99.90
20654;DHT22;21083;50.898;4.902;2023-02-02T11:47:23;10.80;99.90
20654;DHT22;21083;50.898;4.902;2023-02-02T11:49:51;10.80;99.90
20654;DHT22;21083;50.898;4.902;2023-02-02T11:52:20;10.70;99.90
20654;DHT22;21083;50.898;4.902;2023-02-02T11:54:50;10.90;99.90
20654;DHT22;21083;50.898;4.902;2023-02-02T11:57:21;11.00;99.90
20654;DHT22;21083;50.898;4.902;2023-02-02T11:59:49;11.10;99.90
20654;DHT22;21083;50.898;4.902;2023-02-02T12:02:26;11.00;99.90
20654;DHT22;21083;50.898;4.902;2023-02-02T12:05:12;10.80;99.90
20654;DHT22;21083;50.898;4.902;2023-02-02T12:07:40;10.60;99.90
20654;DHT22;21083;50.898;4.902;2023-02-02T12:10:15;10.60;99.90
20654;DHT22;21083;50.898;4.902;2023-02-02T12:12:55;10.50;99.90
20654;DHT22;21083;50.898;4.902;2023-02-02T12:15:31;10.30;99.90
20654;DHT22;21083;50.898;4.902;2023-02-02T12:18:09;10.30;99.90
20654;DHT22;21083;50.898;4.902;2023-02-02T12:20:44;10.20;99.90
20654;DHT22;21083;50.898;4.902;2023-02-02T12:23:32;10.10;99.90
20654;DHT22;21083;50.898;4.902;2023-02-02T12:26:25;10.20;99.90
20654;DHT22;21083;50.898;4.902;2023-02-02T12:29:21;10.20;99.90
20654;DHT22;21083;50.898;4.902;2023-02-02T12:32:10;10.40;99.90
20654;DHT22;21083;50.898;4.902;2023-02-02T12:34:47;10.40;99.90
20654;DHT22;21083;50.898;4.902;2023-02-02T12:37:24;10.50;99.90
20654;DHT22;21083;50.898;4.902;2023-02-02T12:40:02;11.30;99.90
20654;DHT22;21083;50.898;4.902;2023-02-02T12:42:43;11.90;99.90
20654;DHT22;21083;50.898;4.902;2023-02-02T12:45:32;12.20;99.90
20654;DHT22;21083;50.898;4.902;2023-02-02T12:48:09;12.70;99.90
20654;DHT22;21083;50.898;4.902;2023-02-02T12:50:44;12.30;99.90
20654;DHT22;21083;50.898;4.902;2023-02-02T12:53:27;11.80;99.90
20654;DHT22;21083;50.898;4.902;2023-02-02T12:56:18;11.70;99.90
20654;DHT22;21083;50.898;4.902;2023-02-02T12:58:54;11.50;99.90
20654;DHT22;21083;50.898;4.902;2023-02-02T13:01:41;11.40;99.90
20654;DHT22;21083;50.898;4.902;2023-02-02T13:04:27;11.40;99.90
20654;DHT22;21083;50.898;4.902;2023-02-02T13:10:10;11.40;99.90
20654;DHT22;21083;50.898;4.902;2023-02-02T13:12:41;11.30;99.90
20654;DHT22;21083;50.898;4.902;2023-02-02T13:15:13;11.10;99.90
20654;DHT22;21083;50.898;4.902;2023-02-02T13:17:47;11.00;99.90
20654;DHT22;21083;50.898;4.902;2023-02-02T13:20:24;11.00;99.90
20654;DHT22;21083;50.898;4.902;2023-02-02T13:22:56;11.20;99.90
20654;DHT22;21083;50.898;4.902;2023-02-02T13:25:29;11.20;99.90
20654;DHT22;21083;50.898;4.902;2023-02-02T13:27:58;11.20;99.90
20654;DHT22;21083;50.898;4.902;2023-02-02T13:30:30;11.20;99.90
20654;DHT22;21083;50.898;4.902;2023-02-02T13:33:04;11.10;99.90
20654;DHT22;21083;50.898;4.902;2023-02-02T13:35:35;11.30;99.90
20654;DHT22;21083;50.898;4.902;2023-02-02T13:38:12;11.30;99.90
20654;DHT22;21083;50.898;4.902;2023-02-02T13:40:43;11.30;99.90
20654;DHT22;21083;50.898;4.902;2023-02-02T13:43:32;11.30;99.90
20654;DHT22;21083;50.898;4.902;2023-02-02T13:46:08;11.10;99.90
20654;DHT22;21083;50.898;4.902;2023-02-02T13:48:46;11.10;99.90
20654;DHT22;21083;50.898;4.902;2023-02-02T13:51:44;11.10;99.90
20654;DHT22;21083;50.898;4.902;2023-02-02T13:54:40;11.60;99.90
20654;DHT22;21083;50.898;4.902;2023-02-02T13:57:37;11.70;99.90
20654;DHT22;21083;50.898;4.902;2023-02-02T14:00:12;11.80;99.90
20654;DHT22;21083;50.898;4.902;2023-02-02T14:02:42;11.80;99.90
20654;DHT22;21083;50.898;4.902;2023-02-02T14:05:21;11.70;99.90
20654;DHT22;21083;50.898;4.902;2023-02-02T14:07:50;11.60;99.90
20654;DHT22;21083;50.898;4.902;2023-02-02T14:10:23;11.40;99.90
20654;DHT22;21083;50.898;4.902;2023-02-02T14:12:51;11.50;99.90
20654;DHT22;21083;50.898;4.902;2023-02-02T14:15:35;12.40;99.90
20654;DHT22;21083;50.898;4.902;2023-02-02T14:18:03;13.10;99.90
20654;DHT22;21083;50.898;4.902;2023-02-02T14:20:47;13.20;99.90
20654;DHT22;21083;50.898;4.902;2023-02-02T14:23:48;13.20;99.90
20654;DHT22;21083;50.898;4.902;2023-02-02T14:26:19;12.50;99.90
20654;DHT22;21083;50.898;4.902;2023-02-02T14:29:35;12.10;99.90
20654;DHT22;21083;50.898;4.902;2023-02-02T14:32:30;11.90;99.90
20654;DHT22;21083;50.898;4.902;2023-02-02T14:35:53;11.60;99.90
20654;DHT22;21083;50.898;4.902;2023-02-02T14:37:53;11.40;99.90
20654;DHT22;21083;50.898;4.902;2023-02-02T14:40:41;11.10;99.90
20654;DHT22;21083;50.898;4.902;2023-02-02T14:43:20;11.00;99.90
20654;DHT22;21083;50.898;4.902;2023-02-02T14:46:37;10.90;99.90
20654;DHT22;21083;50.898;4.902;2023-02-02T14:49:10;10.90;99.90
20654;DHT22;21083;50.898;4.902;2023-02-02T14:51:53;10.70;99.90
20654;DHT22;21083;50.898;4.902;2023-02-02T14:54:27;10.60;99.90
20654;DHT22;21083;50.898;4.902;2023-02-02T14:56:58;10.50;99.90
20654;DHT22;21083;50.898;4.902;2023-02-02T14:59:29;10.50;99.90
20654;DHT22;21083;50.898;4.902;2023-02-02T15:02:13;10.40;99.90
20654;DHT22;21083;50.898;4.902;2023-02-02T15:04:42;10.40;99.90
20654;DHT22;21083;50.898;4.902;2023-02-02T15:07:49;10.40;99.90
20654;DHT22;21083;50.898;4.902;2023-02-02T15:13:19;10.30;99.90
20654;DHT22;21083;50.898;4.902;2023-02-02T15:15:50;10.40;99.90
20654;DHT22;21083;50.898;4.902;2023-02-02T15:18:24;10.30;99.90
20654;DHT22;21083;50.898;4.902;2023-02-02T15:20:57;10.30;99.90
20654;DHT22;21083;50.898;4.902;2023-02-02T15:23:29;10.30;99.90
20654;DHT22;21083;50.898;4.902;2023-02-02T15:25:59;10.30;99.90
20654;DHT22;21083;50.898;4.902;2023-02-02T15:28:36;10.20;99.90
20654;DHT22;21083;50.898;4.902;2023-02-02T15:31:13;10.30;99.90
20654;DHT22;21083;50.898;4.902;2023-02-02T15:33:45;10.30;99.90
20654;DHT22;21083;50.898;4.902;2023-02-02T15:36:18;10.30;99.90
20654;DHT22;21083;50.898;4.902;2023-02-02T15:38:48;10.20;99.90
20654;DHT22;21083;50.898;4.902;2023-02-02T15:41:20;10.10;99.90
20654;DHT22;21083;50.898;4.902;2023-02-02T15:43:47;10.30;99.90
20654;DHT22;21083;50.898;4.902;2023-02-02T15:46:17;10.20;99.90
20654;DHT22;21083;50.898;4.902;2023-02-02T15:49:14;10.10;99.90
20654;DHT22;21083;50.898;4.902;2023-02-02T15:51:42;10.00;99.90
20654;DHT22;21083;50.898;4.902;2023-02-02T15:54:21;10.10;99.90
20654;DHT22;21083;50.898;4.902;2023-02-02T15:56:49;10.10;99.90
20654;DHT22;21083;50.898;4.902;2023-02-02T15:59:18;10.10;99.90
20654;DHT22;21083;50.898;4.902;2023-02-02T16:01:47;10.10;99.90
20654;DHT22;21083;50.898;4.902;2023-02-02T16:04:20;10.10;99.90
20654;DHT22;21083;50.898;4.902;2023-02-02T16:06:48;10.00;99.90
20654;DHT22;21083;50.898;4.902;2023-02-02T16:09:22;10.00;99.90
20654;DHT22;21083;50.898;4.902;2023-02-02T16:11:50;10.00;99.90
20654;DHT22;21083;50.898;4.902;2023-02-02T16:14:17;10.00;99.90
20654;DHT22;21083;50.898;4.902;2023-02-02T16:16:45;10.00;99.90
20654;DHT22;21083;50.898;4.902;2023-02-02T16:19:19;10.00;99.90
20654;DHT22;21083;50.898;4.902;2023-02-02T16:21:50;10.00;99.90